Ridge, Texas
Current Conditions -  °F | °C
As of 12:35 AM on Wednesday 26 Nov 2014 (Local Time) from KLHB Reporting Station
Clear Clear  
Wind Chill: 43°   Ceiling: Unl
Heat Index: 43°   Visibility: 10mi
Dew Point: 35°   Wind: 3mph
Humidity: 73%   Direction: 120°ESE
Pressure: 30.2"   Gusts: NA
Location:  31.0654°N, 96.4194°W
Report Text: KLHB 260635Z AUTO 12003KT 10SM CLR 06/02 A3020 RMK AO2 T00610015
Loading
Personal Weather Stations






























Interactive Weather Map New forecast layout! Learn more

10-Day Weather Forecast

Advertisements
Track Severe Weather on mobile